createdAt,value
2022-09-20T00:01:27.071Z,87.09
2022-09-20T00:03:58.624Z,87.09
2022-09-20T00:06:28.362Z,87.24
2022-09-20T00:08:55.475Z,87.16
2022-09-20T00:11:25.086Z,87.25
2022-09-20T00:13:53.367Z,87.43
2022-09-20T00:16:28.695Z,87.57
2022-09-20T00:18:57.065Z,87.53
2022-09-20T00:21:27.057Z,87.63
2022-09-20T00:23:54.087Z,87.76
2022-09-20T00:26:21.066Z,87.61
2022-09-20T00:28:47.603Z,87.35
2022-09-20T00:31:15.685Z,87.87
2022-09-20T00:34:00.914Z,87.91
2022-09-20T00:36:27.483Z,87.92
2022-09-20T00:39:02.333Z,88.10
2022-09-20T00:41:30.492Z,87.79
2022-09-20T00:43:58.209Z,87.65
2022-09-20T00:46:28.189Z,87.41
2022-09-20T00:49:03.451Z,87.67
2022-09-20T00:51:34.339Z,87.57
2022-09-20T00:54:04.154Z,87.42
2022-09-20T00:56:37.750Z,87.61
2022-09-20T00:59:19.830Z,87.77
2022-09-20T01:01:52.284Z,87.54
2022-09-20T01:04:21.857Z,87.62
2022-09-20T01:06:52.654Z,87.72
2022-09-20T01:09:19.058Z,87.76
2022-09-20T01:11:46.434Z,87.55
2022-09-20T01:14:18.871Z,87.76
2022-09-20T01:16:45.517Z,87.71
2022-09-20T01:19:35.250Z,87.81
2022-09-20T01:22:08.252Z,88.07
2022-09-20T01:25:11.307Z,87.85
2022-09-20T01:27:49.202Z,88.02
2022-09-20T01:30:21.384Z,88.23
2022-09-20T01:32:56.623Z,88.13
2022-09-20T01:35:25.286Z,88.24
2022-09-20T01:38:21.344Z,88.00
2022-09-20T01:41:04.050Z,88.17
2022-09-20T01:43:41.015Z,88.06
2022-09-20T01:46:31.453Z,87.92
2022-09-20T01:49:21.120Z,88.01
2022-09-20T01:52:05.873Z,88.11
2022-09-20T01:54:58.060Z,88.06
2022-09-20T01:57:46.135Z,87.99
2022-09-20T02:00:12.540Z,88.18
2022-09-20T02:03:00.831Z,88.28
2022-09-20T02:05:53.311Z,88.35
2022-09-20T02:08:41.352Z,88.26
2022-09-20T02:11:21.524Z,88.66
2022-09-20T02:13:58.450Z,88.26
2022-09-20T02:17:02.267Z,88.32
2022-09-20T02:20:00.717Z,88.52
2022-09-20T02:22:44.772Z,88.58
2022-09-20T02:25:11.121Z,88.47
2022-09-20T02:27:53.782Z,88.26
2022-09-20T02:30:35.791Z,88.72
2022-09-20T02:33:18.050Z,88.46
2022-09-20T02:36:05.605Z,88.79
2022-09-20T02:38:50.437Z,88.25
2022-09-20T02:41:28.651Z,88.89
2022-09-20T02:44:07.357Z,88.96
2022-09-20T02:46:52.617Z,89.33
2022-09-20T02:49:22.040Z,88.98
2022-09-20T02:52:08.092Z,89.46
2022-09-20T02:55:11.946Z,89.28
2022-09-20T02:57:53.615Z,89.49
2022-09-20T03:00:25.655Z,89.34
2022-09-20T03:03:07.608Z,89.19
2022-09-20T03:05:51.185Z,89.63
2022-09-20T03:08:40.481Z,89.48
2022-09-20T03:11:25.995Z,89.77
2022-09-20T03:14:08.634Z,89.99
2022-09-20T03:16:51.902Z,90.39
2022-09-20T03:19:48.457Z,90.29
2022-09-20T03:22:46.625Z,90.45
2022-09-20T03:25:36.691Z,90.91
2022-09-20T03:28:29.872Z,90.92
2022-09-20T03:30:59.230Z,90.78
2022-09-20T03:33:53.972Z,90.64
2022-09-20T03:36:32.326Z,91.21
2022-09-20T03:39:23.052Z,91.31
2022-09-20T03:42:04.774Z,90.97
2022-09-20T03:44:49.543Z,91.36
2022-09-20T03:47:44.068Z,90.89
2022-09-20T03:50:39.184Z,91.66
2022-09-20T03:53:27.028Z,91.30
2022-09-20T03:56:23.979Z,91.73
2022-09-20T03:59:05.708Z,91.74
2022-09-20T04:01:59.562Z,92.02
2022-09-20T04:04:34.961Z,91.46
2022-09-20T04:07:29.520Z,91.08
2022-09-20T04:10:26.917Z,91.80
2022-09-20T04:13:12.271Z,91.45
2022-09-20T04:15:53.906Z,91.83
2022-09-20T04:18:33.831Z,91.57
2022-09-20T04:21:08.043Z,91.54
2022-09-20T04:23:54.477Z,91.61
2022-09-20T04:26:26.453Z,91.78
2022-09-20T04:29:06.418Z,91.29
2022-09-20T04:31:36.237Z,91.35
2022-09-20T04:34:09.347Z,91.82
2022-09-20T04:36:58.319Z,91.70
2022-09-20T04:39:47.540Z,91.59
2022-09-20T04:42:33.101Z,91.63
2022-09-20T04:45:08.353Z,91.74
2022-09-20T04:48:02.788Z,91.26
2022-09-20T04:51:05.940Z,91.75
2022-09-20T04:54:10.580Z,91.63
2022-09-20T04:57:14.232Z,91.46
2022-09-20T05:00:02.570Z,91.62
2022-09-20T05:02:44.381Z,91.47
2022-09-20T05:05:26.772Z,91.35
2022-09-20T05:08:14.299Z,91.74
2022-09-20T05:11:25.657Z,91.46
2022-09-20T05:14:32.896Z,92.03
2022-09-20T05:17:20.599Z,91.84
2022-09-20T05:20:09.084Z,91.38
2022-09-20T05:22:41.408Z,91.63
2022-09-20T05:25:30.378Z,91.60
2022-09-20T05:28:11.496Z,91.77
2022-09-20T05:30:49.540Z,91.83
2022-09-20T05:33:26.199Z,92.25
2022-09-20T05:36:04.632Z,91.82
2022-09-20T05:38:45.381Z,91.34
2022-09-20T05:41:31.929Z,91.91
2022-09-20T05:44:15.830Z,91.99
2022-09-20T05:46:48.802Z,91.82
2022-09-20T05:49:34.480Z,91.73
2022-09-20T05:52:06.952Z,91.78
2022-09-20T05:54:36.452Z,91.42
2022-09-20T05:57:11.970Z,92.06
2022-09-20T05:59:59.135Z,92.18
2022-09-20T06:02:51.967Z,91.16
2022-09-20T06:05:55.640Z,91.57
2022-09-20T06:08:44.178Z,91.89
2022-09-20T06:11:32.377Z,92.07
2022-09-20T06:14:15.212Z,92.18
2022-09-20T06:17:06.364Z,91.88
2022-09-20T06:19:48.400Z,92.10
2022-09-20T06:22:22.912Z,91.98
2022-09-20T06:25:00.976Z,92.20
2022-09-20T06:27:43.116Z,92.60
2022-09-20T06:30:24.578Z,92.28
2022-09-20T06:33:13.657Z,92.51
2022-09-20T06:35:47.854Z,92.96
2022-09-20T06:39:04.023Z,92.80
2022-09-20T06:41:34.639Z,92.83
2022-09-20T06:44:02.074Z,92.38
2022-09-20T06:46:34.317Z,92.78
2022-09-20T06:49:01.264Z,92.76
2022-09-20T06:51:33.802Z,92.70
2022-09-20T06:54:00.481Z,92.73
2022-09-20T06:56:31.205Z,92.48
2022-09-20T06:58:57.612Z,92.82
2022-09-20T07:01:30.056Z,92.76
2022-09-20T07:03:57.925Z,92.48
2022-09-20T07:06:24.391Z,92.47
2022-09-20T07:08:50.891Z,92.70
2022-09-20T07:11:17.960Z,92.31
2022-09-20T07:13:45.583Z,91.98
2022-09-20T07:16:16.996Z,91.58
2022-09-20T07:18:43.669Z,91.65
2022-09-20T07:21:15.037Z,91.91
2022-09-20T07:23:41.759Z,91.45
2022-09-20T07:26:19.841Z,90.51
2022-09-20T07:28:46.666Z,90.27
2022-09-20T07:31:13.103Z,89.40
2022-09-20T07:33:39.550Z,89.13
2022-09-20T07:36:06.273Z,88.67
2022-09-20T07:38:32.871Z,88.34
2022-09-20T07:41:02.172Z,88.45
2022-09-20T07:43:30.429Z,88.51
2022-09-20T07:45:59.407Z,88.44
2022-09-20T07:48:36.862Z,88.05
2022-09-20T07:51:08.792Z,88.59
2022-09-20T07:53:36.324Z,88.12
2022-09-20T07:56:04.809Z,87.68
2022-09-20T07:58:34.096Z,86.97
2022-09-20T08:01:06.052Z,86.61
2022-09-20T08:03:33.622Z,86.47
2022-09-20T08:06:03.722Z,86.37
2022-09-20T08:08:36.235Z,85.67
2022-09-20T08:11:08.508Z,85.66
2022-09-20T08:16:27.715Z,85.59
2022-09-20T08:18:59.562Z,86.82
2022-09-20T08:21:28.121Z,86.94
2022-09-20T08:23:54.526Z,87.66
2022-09-20T08:26:24.489Z,87.10
2022-09-20T08:28:56.674Z,86.41
2022-09-20T08:31:26.081Z,86.80
2022-09-20T08:33:54.226Z,86.97
2022-09-20T08:36:24.645Z,87.20
2022-09-20T08:42:05.662Z,87.25
2022-09-20T08:44:35.808Z,86.30
2022-09-20T08:47:16.346Z,84.79
2022-09-20T08:49:46.067Z,85.05
2022-09-20T08:52:35.843Z,84.26
2022-09-20T08:55:07.551Z,84.31
2022-09-20T08:57:35.522Z,83.74
2022-09-20T09:00:04.905Z,84.37
2022-09-20T09:02:34.368Z,83.57
2022-09-20T09:05:34.413Z,82.87
2022-09-20T09:08:06.577Z,81.89
2022-09-20T09:10:45.881Z,80.59
2022-09-20T09:13:25.115Z,81.58
2022-09-20T09:15:57.197Z,79.30
2022-09-20T09:18:34.764Z,80.21
2022-09-20T09:21:04.329Z,77.77
2022-09-20T09:23:41.029Z,78.28
2022-09-20T09:26:16.880Z,76.96
2022-09-20T09:28:44.067Z,77.26
2022-09-20T09:31:25.851Z,76.59
2022-09-20T09:33:52.444Z,75.59
2022-09-20T09:36:26.113Z,75.43
2022-09-20T09:39:30.971Z,76.60
2022-09-20T09:42:01.758Z,74.49
2022-09-20T09:44:33.906Z,75.98
2022-09-20T09:47:00.458Z,73.57
2022-09-20T09:49:34.157Z,73.14
2022-09-20T09:52:02.347Z,73.67
2022-09-20T09:54:40.035Z,73.82
2022-09-20T09:57:36.915Z,72.63
2022-09-20T10:00:22.007Z,73.74
2022-09-20T10:03:04.159Z,73.06
2022-09-20T10:06:04.834Z,73.60
2022-09-20T10:08:57.940Z,73.63
2022-09-20T10:12:00.847Z,74.38
2022-09-20T10:15:05.031Z,73.69
2022-09-20T10:18:02.669Z,74.42
2022-09-20T10:20:35.744Z,73.94
2022-09-20T10:26:22.370Z,74.57
2022-09-20T10:28:54.926Z,75.47
2022-09-20T10:31:49.283Z,74.05
2022-09-20T10:34:18.889Z,73.66
2022-09-20T10:36:53.654Z,74.46
2022-09-20T10:39:39.005Z,72.01
2022-09-20T10:42:55.335Z,71.90
2022-09-20T10:46:14.101Z,69.96
2022-09-20T10:48:32.941Z,70.17
2022-09-20T10:51:19.084Z,69.08
2022-09-20T10:53:48.240Z,68.94
2022-09-20T10:56:26.511Z,68.97
2022-09-20T10:59:11.241Z,68.00
2022-09-20T11:01:43.753Z,67.28
2022-09-20T11:04:39.453Z,67.06
2022-09-20T11:07:22.221Z,66.75
2022-09-20T11:09:57.649Z,65.21
2022-09-20T11:12:24.788Z,64.43
2022-09-20T11:14:57.769Z,65.61
2022-09-20T11:17:32.957Z,66.61
2022-09-20T11:20:44.203Z,65.66
2022-09-20T11:23:14.450Z,63.84
2022-09-20T11:25:52.675Z,64.06
2022-09-20T11:28:30.459Z,63.89
2022-09-20T11:31:10.848Z,65.46
2022-09-20T11:34:04.212Z,62.90
2022-09-20T11:36:40.284Z,63.35
2022-09-20T11:39:19.066Z,60.76
2022-09-20T11:41:47.177Z,60.38
2022-09-20T11:44:19.331Z,61.73
2022-09-20T11:46:55.921Z,59.71
2022-09-20T11:49:26.656Z,60.61
2022-09-20T11:52:18.294Z,61.61
2022-09-20T11:55:15.715Z,60.05
2022-09-20T11:57:42.354Z,59.99
2022-09-20T12:00:10.234Z,59.68
2022-09-20T12:02:54.090Z,60.12
2022-09-20T12:05:35.335Z,60.71
2022-09-20T12:08:05.737Z,57.98
2022-09-20T12:10:36.602Z,59.61
2022-09-20T12:13:06.687Z,59.41
2022-09-20T12:15:39.233Z,59.62
2022-09-20T12:18:13.707Z,60.08
2022-09-20T12:20:42.567Z,59.47
2022-09-20T12:23:43.052Z,59.98
2022-09-20T12:26:18.554Z,60.10
2022-09-20T12:28:52.361Z,58.40
2022-09-20T12:31:21.729Z,57.47
2022-09-20T12:34:10.961Z,59.27
2022-09-20T12:36:38.611Z,57.99
2022-09-20T12:39:19.070Z,59.79
2022-09-20T12:41:51.645Z,58.14
2022-09-20T12:44:35.751Z,58.28
2022-09-20T12:47:04.580Z,57.26
2022-09-20T12:49:54.347Z,58.80
2022-09-20T12:52:48.197Z,58.99
2022-09-20T12:55:57.822Z,59.30
2022-09-20T12:58:32.311Z,59.85
2022-09-20T13:01:04.792Z,59.06
2022-09-20T13:03:36.293Z,57.60
2022-09-20T13:06:15.596Z,58.20
2022-09-20T13:09:04.552Z,58.86
2022-09-20T13:11:42.088Z,59.62
2022-09-20T13:14:18.491Z,60.05
2022-09-20T13:16:57.689Z,59.99
2022-09-20T13:19:29.690Z,59.80
2022-09-20T13:22:11.335Z,60.18
2022-09-20T13:24:41.666Z,59.79
2022-09-20T13:27:19.218Z,60.92
2022-09-20T13:29:46.006Z,60.57
2022-09-20T13:32:30.251Z,61.76
2022-09-20T13:35:06.696Z,61.52
2022-09-20T13:37:34.145Z,61.69
2022-09-20T13:40:01.078Z,59.89
2022-09-20T13:42:29.990Z,58.42
2022-09-20T13:44:58.795Z,57.62
2022-09-20T13:47:31.223Z,58.44
2022-09-20T13:50:03.201Z,58.25
2022-09-20T13:52:31.530Z,58.93
2022-09-20T13:54:58.091Z,59.75
2022-09-20T13:57:30.119Z,58.69
2022-09-20T13:59:57.972Z,59.68
2022-09-20T14:02:31.747Z,59.17
2022-09-20T14:05:03.091Z,60.22
2022-09-20T14:07:31.028Z,61.32
2022-09-20T14:09:58.878Z,61.63
2022-09-20T14:12:27.050Z,61.17
2022-09-20T14:14:54.517Z,62.41
2022-09-20T14:17:24.561Z,61.29
2022-09-20T14:19:54.497Z,62.51
2022-09-20T14:22:28.696Z,62.93
2022-09-20T14:25:01.451Z,61.35
2022-09-20T14:27:31.098Z,61.16
2022-09-20T14:29:57.917Z,60.74
2022-09-20T14:32:31.324Z,61.84
2022-09-20T14:35:15.620Z,62.39
2022-09-20T14:37:52.581Z,61.64
2022-09-20T14:40:26.793Z,61.94
2022-09-20T14:43:03.448Z,61.08
2022-09-20T14:45:39.343Z,61.16
2022-09-20T14:48:11.927Z,60.92
2022-09-20T14:50:44.331Z,59.71
2022-09-20T14:53:13.618Z,61.65
2022-09-20T14:55:54.486Z,61.21
2022-09-20T14:58:21.298Z,60.48
2022-09-20T15:00:58.657Z,61.02
2022-09-20T15:03:26.859Z,59.47
2022-09-20T15:05:53.524Z,59.54
2022-09-20T15:08:20.397Z,60.01
2022-09-20T15:10:47.745Z,60.60
2022-09-20T15:13:14.623Z,59.78
2022-09-20T15:15:41.916Z,59.86
2022-09-20T15:18:32.146Z,59.19
2022-09-20T15:20:58.565Z,58.71
2022-09-20T15:23:26.348Z,58.81
2022-09-20T15:25:55.157Z,57.95
2022-09-20T15:28:22.052Z,57.56
2022-09-20T15:30:50.501Z,55.52
2022-09-20T15:33:18.941Z,55.81
2022-09-20T15:35:45.933Z,56.59
2022-09-20T15:38:13.970Z,57.41
2022-09-20T15:40:41.420Z,57.88
2022-09-20T15:43:09.516Z,57.28
2022-09-20T15:45:36.222Z,57.62
2022-09-20T15:48:03.276Z,56.98
2022-09-20T15:50:29.694Z,57.24
2022-09-20T15:52:59.969Z,57.64
2022-09-20T15:55:26.826Z,57.29
2022-09-20T15:57:53.428Z,58.46
2022-09-20T16:00:20.092Z,59.06
2022-09-20T16:02:49.989Z,59.85
2022-09-20T16:05:16.416Z,59.65
2022-09-20T16:07:42.891Z,59.64
2022-09-20T16:10:09.418Z,60.01
2022-09-20T16:12:35.834Z,60.63
2022-09-20T16:15:02.297Z,60.53
2022-09-20T16:17:47.617Z,61.33
2022-09-20T16:20:14.037Z,61.06
2022-09-20T16:22:40.441Z,60.25
2022-09-20T16:25:08.682Z,61.25
2022-09-20T16:27:35.230Z,60.57
2022-09-20T16:30:02.760Z,60.67
2022-09-20T16:32:29.563Z,61.54
2022-09-20T16:34:57.897Z,61.80
2022-09-20T16:37:24.956Z,62.43
2022-09-20T16:39:51.359Z,61.95
2022-09-20T16:42:18.497Z,61.99
2022-09-20T16:44:44.905Z,60.90
2022-09-20T16:47:22.182Z,61.71
2022-09-20T16:49:50.147Z,61.00
2022-09-20T16:52:16.688Z,61.26
2022-09-20T16:54:43.161Z,61.32
2022-09-20T16:57:09.713Z,62.00
2022-09-20T16:59:36.208Z,62.53
2022-09-20T17:02:02.644Z,61.96
2022-09-20T17:04:30.191Z,62.68
2022-09-20T17:06:56.770Z,63.28
2022-09-20T17:09:23.162Z,64.22
2022-09-20T17:11:50.770Z,65.47
2022-09-20T17:14:20.219Z,66.34
2022-09-20T17:16:48.083Z,66.00
2022-09-20T17:19:16.780Z,67.00
2022-09-20T17:21:46.485Z,67.76
2022-09-20T17:24:14.136Z,68.23
2022-09-20T17:26:44.620Z,68.93
2022-09-20T17:29:13.998Z,69.19
2022-09-20T17:31:42.777Z,69.41
2022-09-20T17:34:11.525Z,70.27
2022-09-20T17:36:44.103Z,70.03
2022-09-20T17:39:12.945Z,71.10
2022-09-20T17:41:40.977Z,70.44
2022-09-20T17:44:12.167Z,70.81
2022-09-20T17:46:40.996Z,71.61
2022-09-20T17:49:12.682Z,71.73
2022-09-20T17:51:40.410Z,72.04
2022-09-20T17:54:07.585Z,72.02
2022-09-20T17:56:35.755Z,72.55
2022-09-20T17:59:04.498Z,72.37
2022-09-20T18:01:32.868Z,72.34
2022-09-20T18:04:01.191Z,72.80
2022-09-20T18:06:36.268Z,73.27
2022-09-20T18:09:06.314Z,73.79
2022-09-20T18:11:38.485Z,73.69
2022-09-20T18:14:06.874Z,73.58
2022-09-20T18:16:35.070Z,73.20
2022-09-20T18:19:01.807Z,73.71
2022-09-20T18:21:30.044Z,73.50
2022-09-20T18:23:57.366Z,74.03
2022-09-20T18:26:26.922Z,74.67
2022-09-20T18:28:54.961Z,74.79
2022-09-20T18:31:23.538Z,75.19
2022-09-20T18:33:56.867Z,74.94
2022-09-20T18:36:27.419Z,75.10
2022-09-20T18:38:54.987Z,75.51
2022-09-20T18:41:25.480Z,75.59
2022-09-20T18:43:53.896Z,76.26
2022-09-20T18:46:23.692Z,76.52
2022-09-20T18:49:04.871Z,76.34
2022-09-20T18:51:35.847Z,76.32
2022-09-20T18:54:05.692Z,76.33
2022-09-20T18:56:34.850Z,76.81
2022-09-20T18:59:04.131Z,76.45
2022-09-20T19:01:55.454Z,76.49
2022-09-20T19:04:24.940Z,76.73
2022-09-20T19:06:57.421Z,77.14
2022-09-20T19:10:03.994Z,77.16
2022-09-20T19:12:45.512Z,77.59
2022-09-20T19:15:45.398Z,77.33
2022-09-20T19:18:45.841Z,77.90
2022-09-20T19:21:31.184Z,78.31
2022-09-20T19:24:16.050Z,78.16
2022-09-20T19:26:42.982Z,78.81
2022-09-20T19:29:18.403Z,78.82
2022-09-20T19:31:48.623Z,78.97
2022-09-20T19:34:21.516Z,78.99
2022-09-20T19:37:18.815Z,79.04
2022-09-20T19:40:18.756Z,79.22
2022-09-20T19:43:05.305Z,79.32
2022-09-20T19:45:56.020Z,79.47
2022-09-20T19:48:40.222Z,79.77
2022-09-20T19:51:11.707Z,79.62
2022-09-20T19:53:39.270Z,79.75
2022-09-20T19:56:14.832Z,80.10
2022-09-20T19:58:43.272Z,80.06
2022-09-20T20:01:10.158Z,79.68
2022-09-20T20:03:36.889Z,80.20
2022-09-20T20:06:08.420Z,80.12
2022-09-20T20:08:48.681Z,80.47
2022-09-20T20:11:20.920Z,80.50
2022-09-20T20:14:04.836Z,80.73
2022-09-20T20:16:50.592Z,80.46
2022-09-20T20:19:44.556Z,80.70
2022-09-20T20:22:29.241Z,80.58
2022-09-20T20:24:59.628Z,80.81
2022-09-20T20:27:31.313Z,80.64
2022-09-20T20:29:58.052Z,81.06
2022-09-20T20:32:24.512Z,81.31
2022-09-20T20:34:50.953Z,81.08
2022-09-20T20:37:18.367Z,81.04
2022-09-20T20:39:44.857Z,81.05
2022-09-20T20:42:12.833Z,81.50
2022-09-20T20:44:39.478Z,81.47
2022-09-20T20:47:06.988Z,81.62
2022-09-20T20:49:33.419Z,81.71
2022-09-20T20:52:04.317Z,81.66
2022-09-20T20:54:32.087Z,81.98
2022-09-20T20:56:59.170Z,81.75
2022-09-20T20:59:25.704Z,82.05
2022-09-20T21:01:52.158Z,81.86
2022-09-20T21:04:18.721Z,81.90
2022-09-20T21:06:45.238Z,82.34
2022-09-20T21:09:12.402Z,82.09
2022-09-20T21:11:44.267Z,82.17
2022-09-20T21:14:12.566Z,82.14
2022-09-20T21:16:43.036Z,82.30
2022-09-20T21:19:13.050Z,82.70
2022-09-20T21:21:42.660Z,82.78
2022-09-20T21:24:11.164Z,82.58
2022-09-20T21:26:38.581Z,82.78
2022-09-20T21:29:16.067Z,82.59
2022-09-20T21:31:44.847Z,82.65
2022-09-20T21:34:13.331Z,83.01
2022-09-20T21:36:41.555Z,82.80
2022-09-20T21:39:08.343Z,83.01
2022-09-20T21:41:37.109Z,83.28
2022-09-20T21:44:05.365Z,83.03
2022-09-20T21:46:37.972Z,82.81
2022-09-20T21:49:05.757Z,83.00
2022-09-20T21:51:33.119Z,82.79
2022-09-20T21:54:01.437Z,82.92
2022-09-20T21:56:33.357Z,83.21
2022-09-20T21:59:02.098Z,83.20
2022-09-20T22:01:32.430Z,83.23
2022-09-20T22:04:00.783Z,83.57
2022-09-20T22:06:33.043Z,83.51
2022-09-20T22:09:03.553Z,83.95
2022-09-20T22:11:41.954Z,83.66
2022-09-20T22:14:09.853Z,83.71
2022-09-20T22:16:38.932Z,83.94
2022-09-20T22:19:07.783Z,83.58
2022-09-20T22:21:39.846Z,83.92
2022-09-20T22:24:08.569Z,84.24
2022-09-20T22:26:40.317Z,83.80
2022-09-20T22:29:07.676Z,84.29
2022-09-20T22:31:36.902Z,84.02
2022-09-20T22:34:05.991Z,83.78
2022-09-20T22:36:37.801Z,83.96
2022-09-20T22:39:07.409Z,84.09
2022-09-20T22:41:35.260Z,83.92
2022-09-20T22:44:02.252Z,83.89
2022-09-20T22:46:30.343Z,83.95
2022-09-20T22:48:57.106Z,84.25
2022-09-20T22:51:29.178Z,84.40
2022-09-20T22:53:55.706Z,84.40
2022-09-20T22:56:30.308Z,84.58
2022-09-20T22:59:03.701Z,84.35
2022-09-20T23:01:35.837Z,84.59
2022-09-20T23:04:07.333Z,84.47
2022-09-20T23:06:37.156Z,84.75
2022-09-20T23:09:06.096Z,84.71
2022-09-20T23:11:32.662Z,84.66
2022-09-20T23:14:01.420Z,84.65
2022-09-20T23:16:30.361Z,84.65
2022-09-20T23:18:58.773Z,84.85
2022-09-20T23:21:26.231Z,84.70
2022-09-20T23:23:54.479Z,84.31
2022-09-20T23:26:21.375Z,84.65
2022-09-20T23:28:55.849Z,84.51
2022-09-20T23:31:23.104Z,84.61
2022-09-20T23:33:51.579Z,84.37
2022-09-20T23:36:19.185Z,84.44
2022-09-20T23:38:46.752Z,84.68
2022-09-20T23:41:16.283Z,84.70
2022-09-20T23:43:43.527Z,84.29
2022-09-20T23:46:11.893Z,84.57
2022-09-20T23:48:41.438Z,84.51
2022-09-20T23:51:09.841Z,84.42
2022-09-20T23:53:36.872Z,84.58
2022-09-20T23:56:05.537Z,84.19
2022-09-20T23:58:32.817Z,84.30
